createdAt,value
2022-12-04T00:01:29.158Z,23.73
2022-12-04T00:04:01.348Z,20.53
2022-12-04T00:06:29.639Z,29.35
2022-12-04T00:08:57.077Z,23.97
2022-12-04T00:11:28.043Z,21.20
2022-12-04T00:13:57.381Z,20.20
2022-12-04T00:16:30.658Z,23.23
2022-12-04T00:18:58.499Z,20.50
2022-12-04T00:21:26.728Z,23.40
2022-12-04T00:23:54.734Z,27.53
2022-12-04T00:26:24.923Z,20.47
2022-12-04T00:28:53.237Z,26.77
2022-12-04T00:31:26.288Z,28.57
2022-12-04T00:33:54.076Z,19.97
2022-12-04T00:36:24.445Z,21.90
2022-12-04T00:38:52.293Z,20.27
2022-12-04T00:41:23.742Z,31.50
2022-12-04T00:43:51.790Z,21.42
2022-12-04T00:46:19.705Z,26.93
2022-12-04T00:48:47.085Z,23.23
2022-12-04T00:51:17.532Z,26.40
2022-12-04T00:53:45.534Z,21.30
2022-12-04T00:56:18.544Z,22.87
2022-12-04T00:58:46.724Z,21.30
2022-12-04T01:01:17.777Z,21.07
2022-12-04T01:03:45.677Z,20.53
2022-12-04T01:06:31.026Z,27.17
2022-12-04T01:09:00.125Z,19.77
2022-12-04T01:11:29.721Z,22.43
2022-12-04T01:13:58.010Z,22.40
2022-12-04T01:16:31.670Z,24.23
2022-12-04T01:18:59.282Z,25.73
2022-12-04T01:21:26.687Z,23.03
2022-12-04T01:23:54.048Z,21.87
2022-12-04T01:26:21.754Z,16.50
2022-12-04T01:28:49.115Z,24.37
2022-12-04T01:31:18.818Z,23.97
2022-12-04T01:33:47.060Z,22.07
2022-12-04T01:36:17.346Z,20.80
2022-12-04T01:38:45.065Z,23.57
2022-12-04T01:41:13.792Z,18.80
2022-12-04T01:43:41.488Z,22.87
2022-12-04T01:46:09.512Z,23.73
2022-12-04T01:48:50.580Z,19.70
2022-12-04T01:51:24.798Z,22.67
2022-12-04T01:53:56.168Z,24.67
2022-12-04T01:56:31.514Z,28.77
2022-12-04T01:59:01.679Z,23.63
2022-12-04T02:01:36.270Z,19.90
2022-12-04T02:04:03.834Z,30.80
2022-12-04T02:06:31.203Z,20.83
2022-12-04T02:08:58.887Z,28.93
2022-12-04T02:11:46.610Z,25.13
2022-12-04T02:14:41.861Z,21.30
2022-12-04T02:17:28.806Z,25.60
2022-12-04T02:20:11.685Z,23.23
2022-12-04T02:23:30.470Z,22.37
2022-12-04T02:26:40.928Z,22.13
2022-12-04T02:29:39.533Z,26.77
2022-12-04T02:32:34.213Z,21.87
2022-12-04T02:35:08.830Z,23.50
2022-12-04T02:37:40.148Z,23.70
2022-12-04T02:40:23.804Z,28.63
2022-12-04T02:43:13.672Z,24.30
2022-12-04T02:45:46.885Z,22.40
2022-12-04T02:48:20.922Z,21.27
2022-12-04T02:50:53.413Z,21.40
2022-12-04T02:53:26.044Z,24.80
2022-12-04T02:56:11.298Z,22.97
2022-12-04T02:58:45.255Z,22.90
2022-12-04T03:01:23.889Z,21.07
2022-12-04T03:04:09.372Z,25.53
2022-12-04T03:06:40.180Z,27.33
2022-12-04T03:09:39.231Z,24.47
2022-12-04T03:12:48.480Z,24.07
2022-12-04T03:15:24.442Z,24.80
2022-12-04T03:18:06.038Z,26.17
2022-12-04T03:20:37.188Z,24.40
2022-12-04T03:23:12.924Z,29.38
2022-12-04T03:26:12.333Z,24.80
2022-12-04T03:29:00.016Z,29.47
2022-12-04T03:31:44.205Z,26.43
2022-12-04T03:34:15.542Z,28.03
2022-12-04T03:37:06.361Z,34.05
2022-12-04T03:39:59.597Z,30.80
2022-12-04T03:42:39.333Z,24.83
2022-12-04T03:45:17.290Z,25.10
2022-12-04T03:48:05.603Z,24.33
2022-12-04T03:50:38.713Z,32.10
2022-12-04T03:53:13.143Z,32.50
2022-12-04T03:55:53.589Z,24.60
2022-12-04T03:58:28.613Z,26.97
2022-12-04T04:00:58.245Z,29.23
2022-12-04T04:03:39.610Z,27.63
2022-12-04T04:06:13.070Z,28.17
2022-12-04T04:08:43.414Z,28.03
2022-12-04T04:11:19.204Z,32.93
2022-12-04T04:14:16.421Z,23.03
2022-12-04T04:17:10.311Z,25.43
2022-12-04T04:19:58.860Z,25.93
2022-12-04T04:22:45.810Z,25.37
2022-12-04T04:25:20.947Z,25.10
2022-12-04T04:27:56.482Z,27.57
2022-12-04T04:30:25.088Z,26.63
2022-12-04T04:33:14.904Z,26.97
2022-12-04T04:35:49.362Z,22.47
2022-12-04T04:38:44.004Z,25.67
2022-12-04T04:41:22.998Z,22.63
2022-12-04T04:44:15.535Z,23.97
2022-12-04T04:46:51.061Z,23.30
2022-12-04T04:49:20.040Z,26.50
2022-12-04T04:51:47.857Z,28.30
2022-12-04T04:54:17.844Z,30.23
2022-12-04T04:56:46.956Z,24.43
2022-12-04T04:59:15.022Z,24.40
2022-12-04T05:01:45.178Z,21.77
2022-12-04T05:04:12.816Z,28.10
2022-12-04T05:06:40.203Z,25.37
2022-12-04T05:09:07.562Z,21.93
2022-12-04T05:11:35.052Z,25.90
2022-12-04T05:14:02.483Z,30.67
2022-12-04T05:16:30.029Z,23.63
2022-12-04T05:19:15.925Z,25.43
2022-12-04T05:21:43.476Z,22.07
2022-12-04T05:24:10.805Z,28.50
2022-12-04T05:26:38.236Z,26.23
2022-12-04T05:29:05.685Z,25.53
2022-12-04T05:31:33.313Z,29.07
2022-12-04T05:34:00.745Z,22.20
2022-12-04T05:36:28.134Z,21.40
2022-12-04T05:38:55.503Z,26.20
2022-12-04T05:41:23.399Z,27.57
2022-12-04T05:43:50.836Z,24.10
2022-12-04T05:46:18.393Z,25.30
2022-12-04T05:48:45.766Z,22.33
2022-12-04T05:51:13.171Z,24.57
2022-12-04T05:53:41.084Z,21.23
2022-12-04T05:56:09.119Z,24.47
2022-12-04T05:58:37.553Z,31.17
2022-12-04T06:01:13.115Z,32.93
2022-12-04T06:03:40.503Z,24.17
2022-12-04T06:06:22.260Z,29.47
2022-12-04T06:08:55.159Z,24.58
2022-12-04T06:11:25.995Z,30.87
2022-12-04T06:13:53.827Z,25.63
2022-12-04T06:16:23.905Z,26.67
2022-12-04T06:18:53.735Z,26.60
2022-12-04T06:21:22.615Z,26.60
2022-12-04T06:23:50.775Z,25.10
2022-12-04T06:26:18.765Z,24.27
2022-12-04T06:28:46.189Z,29.37
2022-12-04T06:31:16.575Z,25.20
2022-12-04T06:33:43.971Z,29.33
2022-12-04T06:36:15.045Z,33.30
2022-12-04T06:38:43.100Z,28.97
2022-12-04T06:41:13.156Z,26.03
2022-12-04T06:43:41.090Z,27.03
2022-12-04T06:46:12.029Z,26.33
2022-12-04T06:48:39.500Z,29.50
2022-12-04T06:51:11.766Z,28.03
2022-12-04T06:53:39.803Z,28.40
2022-12-04T06:56:10.710Z,30.07
2022-12-04T06:58:38.202Z,27.10
2022-12-04T07:01:11.568Z,27.17
2022-12-04T07:03:39.615Z,31.00
2022-12-04T07:06:28.974Z,29.20
2022-12-04T07:09:13.853Z,30.00
2022-12-04T07:11:42.871Z,25.23
2022-12-04T07:14:12.005Z,30.57
2022-12-04T07:16:42.252Z,29.30
2022-12-04T07:19:11.681Z,29.80
2022-12-04T07:21:39.261Z,29.50
2022-12-04T07:24:06.991Z,25.73
2022-12-04T07:26:34.626Z,28.47
2022-12-04T07:29:01.965Z,34.03
2022-12-04T07:31:30.137Z,25.50
2022-12-04T07:33:58.924Z,30.47
2022-12-04T07:36:30.490Z,37.93
2022-12-04T07:38:57.856Z,35.00
2022-12-04T07:41:25.287Z,26.63
2022-12-04T07:43:53.527Z,33.40
2022-12-04T07:46:27.100Z,37.53
2022-12-04T07:48:58.893Z,35.90
2022-12-04T07:51:28.617Z,31.42
2022-12-04T07:54:03.562Z,29.80
2022-12-04T07:56:32.390Z,33.73
2022-12-04T07:59:00.453Z,32.87
2022-12-04T08:01:28.110Z,25.77
2022-12-04T08:03:57.858Z,33.73
2022-12-04T08:06:27.382Z,31.17
2022-12-04T08:08:55.226Z,31.97
2022-12-04T08:11:25.790Z,28.13
2022-12-04T08:14:01.594Z,33.50
2022-12-04T08:16:31.400Z,30.73
2022-12-04T08:18:59.737Z,30.83
2022-12-04T08:21:29.327Z,37.90
2022-12-04T08:23:58.680Z,30.70
2022-12-04T08:26:28.305Z,34.07
2022-12-04T08:28:57.652Z,32.77
2022-12-04T08:31:28.265Z,27.40
2022-12-04T08:33:57.956Z,27.80
2022-12-04T08:36:26.493Z,27.37
2022-12-04T08:38:54.195Z,27.90
2022-12-04T08:41:24.416Z,30.73
2022-12-04T08:43:54.724Z,30.83
2022-12-04T08:46:23.213Z,33.27
2022-12-04T08:48:50.754Z,27.03
2022-12-04T08:51:23.708Z,30.37
2022-12-04T08:53:59.972Z,32.30
2022-12-04T08:56:28.957Z,33.03
2022-12-04T08:58:57.271Z,36.07
2022-12-04T09:01:25.871Z,34.53
2022-12-04T09:03:53.772Z,40.93
2022-12-04T09:06:21.665Z,35.83
2022-12-04T09:08:51.534Z,33.00
2022-12-04T09:11:21.240Z,29.57
2022-12-04T09:13:48.828Z,29.13
2022-12-04T09:16:19.077Z,30.40
2022-12-04T09:18:47.383Z,28.83
2022-12-04T09:21:16.641Z,32.80
2022-12-04T09:23:45.503Z,32.83
2022-12-04T09:26:28.630Z,33.30
2022-12-04T09:28:58.662Z,30.23
2022-12-04T09:31:26.555Z,30.63
2022-12-04T09:33:54.164Z,25.80
2022-12-04T09:36:22.164Z,34.50
2022-12-04T09:38:51.500Z,38.80
2022-12-04T09:41:44.271Z,33.33
2022-12-04T09:44:34.281Z,32.40
2022-12-04T09:47:21.596Z,28.83
2022-12-04T09:50:12.190Z,32.23
2022-12-04T09:53:11.189Z,36.17
2022-12-04T09:55:58.975Z,29.63
2022-12-04T09:58:30.896Z,31.53
2022-12-04T10:01:01.089Z,34.80
2022-12-04T10:03:31.033Z,38.60
2022-12-04T10:06:12.222Z,30.63
2022-12-04T10:08:49.642Z,29.73
2022-12-04T10:12:03.344Z,31.37
2022-12-04T10:15:07.387Z,29.67
2022-12-04T10:18:03.990Z,31.30
2022-12-04T10:21:21.808Z,26.93
2022-12-04T10:24:17.180Z,31.13
2022-12-04T10:26:47.501Z,30.17
2022-12-04T10:29:31.234Z,30.70
2022-12-04T10:32:14.785Z,28.47
2022-12-04T10:34:45.817Z,27.30
2022-12-04T10:37:15.031Z,30.52
2022-12-04T10:40:12.715Z,31.20
2022-12-04T10:42:47.698Z,33.63
2022-12-04T10:45:15.160Z,33.93
2022-12-04T10:47:48.096Z,30.20
2022-12-04T10:50:25.739Z,31.37
2022-12-04T10:52:53.119Z,32.10
2022-12-04T10:55:33.661Z,38.13
2022-12-04T10:58:02.874Z,34.77
2022-12-04T11:00:32.970Z,37.07
2022-12-04T11:03:04.037Z,33.60
2022-12-04T11:05:45.991Z,37.27
2022-12-04T11:08:26.423Z,42.63
2022-12-04T11:11:01.135Z,32.07
2022-12-04T11:13:29.165Z,35.33
2022-12-04T11:15:58.375Z,37.17
2022-12-04T11:18:31.971Z,39.93
2022-12-04T11:21:06.004Z,37.57
2022-12-04T11:23:41.971Z,30.90
2022-12-04T11:26:10.260Z,33.73
2022-12-04T11:28:42.078Z,30.00
2022-12-04T11:31:16.487Z,29.48
2022-12-04T11:33:52.214Z,31.33
2022-12-04T11:36:26.849Z,31.50
2022-12-04T11:39:26.625Z,33.75
2022-12-04T11:42:24.383Z,35.83
2022-12-04T11:44:59.973Z,28.80
2022-12-04T11:47:31.657Z,31.75
2022-12-04T11:50:11.577Z,39.83
2022-12-04T11:53:04.365Z,34.60
2022-12-04T11:56:01.266Z,32.17
2022-12-04T11:59:10.253Z,32.83
2022-12-04T12:01:59.112Z,32.60
2022-12-04T12:04:45.381Z,36.30
2022-12-04T12:07:36.005Z,44.83
2022-12-04T12:10:45.560Z,35.17
2022-12-04T12:13:59.413Z,34.22
2022-12-04T12:20:22.813Z,29.40
2022-12-04T12:23:06.552Z,28.98
2022-12-04T12:26:08.856Z,33.97
2022-12-04T12:29:26.814Z,26.73
2022-12-04T12:32:17.971Z,28.98
2022-12-04T12:34:47.550Z,30.30
2022-12-04T12:37:53.815Z,28.83
2022-12-04T12:40:37.367Z,35.78
2022-12-04T12:43:32.174Z,25.40
2022-12-04T12:46:37.451Z,26.27
2022-12-04T12:49:16.875Z,29.73
2022-12-04T12:52:00.337Z,28.77
2022-12-04T12:54:42.910Z,27.83
2022-12-04T12:57:18.405Z,29.02
2022-12-04T12:59:50.166Z,28.95
2022-12-04T13:02:29.702Z,34.85
2022-12-04T13:05:10.433Z,25.67
2022-12-04T13:07:53.225Z,27.33
2022-12-04T13:10:24.786Z,27.38
2022-12-04T13:12:58.127Z,26.13
2022-12-04T13:15:50.183Z,22.33
2022-12-04T13:18:30.692Z,27.40
2022-12-04T13:21:03.181Z,18.63
2022-12-04T13:23:58.943Z,24.10
2022-12-04T13:27:12.514Z,24.38
2022-12-04T13:30:04.825Z,23.50
2022-12-04T13:32:56.589Z,26.73
2022-12-04T13:35:47.920Z,25.63
2022-12-04T13:38:36.027Z,22.02
2022-12-04T13:41:07.245Z,22.58
2022-12-04T13:43:47.028Z,23.83
2022-12-04T13:46:37.759Z,26.17
2022-12-04T13:49:26.002Z,23.10
2022-12-04T13:51:55.232Z,25.17
2022-12-04T13:54:31.112Z,23.50
2022-12-04T13:57:22.434Z,24.23
2022-12-04T13:59:50.173Z,22.13
2022-12-04T14:02:32.351Z,22.50
2022-12-04T14:05:03.934Z,24.08
2022-12-04T14:07:40.328Z,22.50
2022-12-04T14:10:29.668Z,27.30
2022-12-04T14:13:04.530Z,20.33
2022-12-04T14:15:37.256Z,21.52
2022-12-04T14:18:27.890Z,27.00
2022-12-04T14:21:06.152Z,22.52
2022-12-04T14:23:39.215Z,27.83
2022-12-04T14:26:42.855Z,28.85
2022-12-04T14:29:48.213Z,26.42
2022-12-04T14:32:23.832Z,22.63
2022-12-04T14:34:51.640Z,28.10
2022-12-04T14:37:36.535Z,27.67
2022-12-04T14:40:07.643Z,29.40
2022-12-04T14:42:39.338Z,29.67
2022-12-04T14:45:25.359Z,31.38
2022-12-04T14:48:33.666Z,34.40
2022-12-04T14:51:26.385Z,26.27
2022-12-04T14:54:23.447Z,23.77
2022-12-04T14:57:19.648Z,30.38
2022-12-04T14:59:52.265Z,33.63
2022-12-04T15:02:38.749Z,30.87
2022-12-04T15:05:19.912Z,29.42
2022-12-04T15:07:54.448Z,32.38
2022-12-04T15:10:45.839Z,35.38
2022-12-04T15:13:21.368Z,30.30
2022-12-04T15:15:52.813Z,36.10
2022-12-04T15:18:20.414Z,28.00
2022-12-04T15:21:06.807Z,28.80
2022-12-04T15:23:42.058Z,34.15
2022-12-04T15:26:15.676Z,28.88
2022-12-04T15:28:54.795Z,30.17
2022-12-04T15:31:37.919Z,31.38
2022-12-04T15:34:18.040Z,33.40
2022-12-04T15:36:54.698Z,25.60
2022-12-04T15:39:26.077Z,31.95
2022-12-04T15:42:05.909Z,33.00
2022-12-04T15:44:35.172Z,33.97
2022-12-04T15:47:15.113Z,30.02
2022-12-04T15:49:42.516Z,29.45
2022-12-04T15:52:18.499Z,32.05
2022-12-04T15:54:56.611Z,31.52
2022-12-04T15:57:42.499Z,33.30
2022-12-04T16:00:30.253Z,34.38
2022-12-04T16:02:59.034Z,32.10
2022-12-04T16:05:35.121Z,34.80
2022-12-04T16:08:24.920Z,36.72
2022-12-04T16:11:00.890Z,28.25
2022-12-04T16:13:38.575Z,32.88
2022-12-04T16:16:10.845Z,31.95
2022-12-04T16:18:39.393Z,29.40
2022-12-04T16:21:15.867Z,28.35
2022-12-04T16:23:43.774Z,31.40
2022-12-04T16:26:16.493Z,40.88
2022-12-04T16:28:43.907Z,33.45
2022-12-04T16:31:17.005Z,31.25
2022-12-04T16:33:44.412Z,34.35
2022-12-04T16:36:11.779Z,37.17
2022-12-04T16:38:39.332Z,30.90
2022-12-04T16:41:07.511Z,33.05
2022-12-04T16:43:34.890Z,28.60
2022-12-04T16:46:02.314Z,33.08
2022-12-04T16:48:33.573Z,33.80
2022-12-04T16:51:01.132Z,29.83
2022-12-04T16:53:28.406Z,30.88
2022-12-04T16:55:55.822Z,29.70
2022-12-04T16:58:23.153Z,33.58
2022-12-04T17:00:54.554Z,32.72
2022-12-04T17:03:33.365Z,30.45
2022-12-04T17:06:01.768Z,29.00
2022-12-04T17:08:29.701Z,28.13
2022-12-04T17:10:57.165Z,28.75
2022-12-04T17:13:24.720Z,33.38
2022-12-04T17:15:52.218Z,34.72
2022-12-04T17:18:21.460Z,33.17
2022-12-04T17:20:49.173Z,27.92
2022-12-04T17:23:16.824Z,22.58
2022-12-04T17:25:44.429Z,31.15
2022-12-04T17:28:11.917Z,28.70
2022-12-04T17:30:39.422Z,25.17
2022-12-04T17:33:06.739Z,25.60
2022-12-04T17:35:34.246Z,32.40
2022-12-04T17:38:05.857Z,29.83
2022-12-04T17:43:00.958Z,25.20
2022-12-04T17:45:28.651Z,31.52
2022-12-04T17:47:56.004Z,33.58
2022-12-04T17:50:23.893Z,32.58
2022-12-04T17:52:51.377Z,34.67
2022-12-04T17:55:18.710Z,32.13
2022-12-04T17:57:46.038Z,25.40
2022-12-04T18:00:13.929Z,26.65
2022-12-04T18:02:42.507Z,29.98
2022-12-04T18:05:10.271Z,27.45
2022-12-04T18:07:37.731Z,34.95
2022-12-04T18:10:06.307Z,29.90
2022-12-04T18:12:33.670Z,25.20
2022-12-04T18:15:01.151Z,24.75
2022-12-04T18:17:28.586Z,22.58
2022-12-04T18:19:59.822Z,23.95
2022-12-04T18:22:30.185Z,21.45
2022-12-04T18:24:57.533Z,22.08
2022-12-04T18:27:25.420Z,28.27
2022-12-04T18:29:52.765Z,26.33
2022-12-04T18:32:20.209Z,27.48
2022-12-04T18:34:47.546Z,33.88
2022-12-04T18:37:14.884Z,30.08
2022-12-04T18:39:42.323Z,26.90
2022-12-04T18:42:09.683Z,22.93
2022-12-04T18:44:36.942Z,28.07
2022-12-04T18:47:04.338Z,25.75
2022-12-04T18:49:31.762Z,25.38
2022-12-04T18:51:59.301Z,22.83
2022-12-04T18:54:26.620Z,28.92
2022-12-04T18:56:54.122Z,29.90
2022-12-04T18:59:24.267Z,28.08
2022-12-04T19:01:53.317Z,24.73
2022-12-04T19:04:23.573Z,28.27
2022-12-04T19:06:53.929Z,21.73
2022-12-04T19:09:54.278Z,28.60
2022-12-04T19:12:14.863Z,28.63
2022-12-04T19:14:42.222Z,22.85
2022-12-04T19:17:09.679Z,28.40
2022-12-04T19:19:37.022Z,24.77
2022-12-04T19:22:04.540Z,24.35
2022-12-04T19:24:32.032Z,23.65
2022-12-04T19:26:59.414Z,29.00
2022-12-04T19:29:26.703Z,28.42
2022-12-04T19:31:59.079Z,25.85
2022-12-04T19:34:27.133Z,23.92
2022-12-04T19:36:55.089Z,30.20
2022-12-04T19:39:22.863Z,22.33
2022-12-04T19:41:50.287Z,24.95
2022-12-04T19:44:47.426Z,27.13
2022-12-04T19:47:05.058Z,25.30
2022-12-04T19:49:32.549Z,28.15
2022-12-04T19:51:59.918Z,20.20
2022-12-04T19:54:28.217Z,22.83
2022-12-04T19:56:55.726Z,19.35
2022-12-04T19:59:23.136Z,14.05
2022-12-04T20:01:50.646Z,16.33
2022-12-04T20:04:18.284Z,18.10
2022-12-04T20:06:46.611Z,15.40
2022-12-04T20:09:18.463Z,16.33
2022-12-04T20:11:46.071Z,11.80
2022-12-04T20:14:13.748Z,11.30
2022-12-04T20:16:42.205Z,14.10
2022-12-04T20:19:14.151Z,14.60
2022-12-04T20:21:42.137Z,11.65
2022-12-04T20:24:12.661Z,11.60
2022-12-04T20:26:41.340Z,26.77
2022-12-04T20:29:13.045Z,33.22
2022-12-04T20:31:43.055Z,28.85
2022-12-04T20:34:14.130Z,35.73
2022-12-04T20:36:43.826Z,32.77
2022-12-04T20:39:12.618Z,28.53
2022-12-04T20:41:40.532Z,33.33
2022-12-04T20:44:10.979Z,30.47
2022-12-04T20:46:39.639Z,26.77
2022-12-04T20:49:11.180Z,33.13
2022-12-04T20:51:42.263Z,28.30
2022-12-04T20:54:13.588Z,32.47
2022-12-04T20:56:41.058Z,25.45
2022-12-04T20:59:13.160Z,27.47
2022-12-04T21:04:09.015Z,24.10
2022-12-04T21:06:38.361Z,23.23
2022-12-04T21:09:08.542Z,23.40
2022-12-04T21:11:47.187Z,24.40
2022-12-04T21:14:35.748Z,17.50
2022-12-04T21:17:07.538Z,18.03
2022-12-04T21:19:35.149Z,17.35
2022-12-04T21:22:04.308Z,15.53
2022-12-04T21:24:36.597Z,18.97
2022-12-04T21:27:05.070Z,14.50
2022-12-04T21:29:32.406Z,18.92
2022-12-04T21:31:59.800Z,13.93
2022-12-04T21:34:27.154Z,12.90
2022-12-04T21:36:54.455Z,21.55
2022-12-04T21:39:23.968Z,15.30
2022-12-04T21:42:10.074Z,16.95
2022-12-04T21:44:38.254Z,17.27
2022-12-04T21:47:05.608Z,18.33
2022-12-04T21:49:33.023Z,18.35
2022-12-04T21:52:00.448Z,18.70
2022-12-04T21:54:28.973Z,17.20
2022-12-04T21:56:57.612Z,18.07
2022-12-04T21:59:25.905Z,19.17
2022-12-04T22:01:53.672Z,19.88
2022-12-04T22:04:21.840Z,19.77
2022-12-04T22:06:49.702Z,19.55
2022-12-04T22:09:17.526Z,16.55
2022-12-04T22:11:45.213Z,18.50
2022-12-04T22:14:12.849Z,14.65
2022-12-04T22:16:43.485Z,18.45
2022-12-04T22:19:12.772Z,16.83
2022-12-04T22:21:40.525Z,17.55
2022-12-04T22:24:08.756Z,16.75
2022-12-04T22:26:37.095Z,15.43
2022-12-04T22:29:20.723Z,15.63
2022-12-04T22:31:52.433Z,11.25
2022-12-04T22:34:19.781Z,8.50
2022-12-04T22:36:50.090Z,8.45
2022-12-04T22:39:17.549Z,7.50
2022-12-04T22:41:44.923Z,11.35
2022-12-04T22:44:12.364Z,7.93
2022-12-04T22:46:39.824Z,7.28
2022-12-04T22:49:07.167Z,8.93
2022-12-04T22:51:34.557Z,8.32
2022-12-04T22:54:02.004Z,8.10
2022-12-04T22:56:31.557Z,9.85
2022-12-04T22:59:00.022Z,5.22
2022-12-04T23:01:32.995Z,7.72
2022-12-04T23:04:01.574Z,8.40
2022-12-04T23:06:30.766Z,8.23
2022-12-04T23:09:04.986Z,6.63
2022-12-04T23:11:32.408Z,6.53
2022-12-04T23:14:02.036Z,9.25
2022-12-04T23:16:31.642Z,7.10
2022-12-04T23:18:59.273Z,7.05
2022-12-04T23:21:27.618Z,9.15
2022-12-04T23:23:56.150Z,8.95
2022-12-04T23:26:26.649Z,8.90
2022-12-04T23:28:55.390Z,9.00
2022-12-04T23:31:23.271Z,8.32
2022-12-04T23:33:50.930Z,8.30
2022-12-04T23:36:18.537Z,10.18
2022-12-04T23:38:46.433Z,10.95
2022-12-04T23:41:17.102Z,11.93
2022-12-04T23:43:45.651Z,9.30
2022-12-04T23:46:15.945Z,12.13
2022-12-04T23:48:44.956Z,12.85
2022-12-04T23:51:14.931Z,10.48
2022-12-04T23:53:42.880Z,9.95
2022-12-04T23:56:16.284Z,11.77
2022-12-04T23:58:45.953Z,10.55
